sensor_id;sensor_type;location;lat;lon;timestamp;P1;durP1;ratioP1;P2;durP2;ratioP2
5117;SDS011;2578;51.622;7.046;2022-08-25T00:01:29;7.88;;;4.60;;
5117;SDS011;2578;51.622;7.046;2022-08-25T00:04:00;8.00;;;4.90;;
5117;SDS011;2578;51.622;7.046;2022-08-25T00:06:28;7.87;;;4.60;;
5117;SDS011;2578;51.622;7.046;2022-08-25T00:08:54;7.93;;;4.40;;
5117;SDS011;2578;51.622;7.046;2022-08-25T00:11:24;7.77;;;4.20;;
5117;SDS011;2578;51.622;7.046;2022-08-25T00:13:52;7.87;;;4.50;;
5117;SDS011;2578;51.622;7.046;2022-08-25T00:16:21;7.67;;;3.90;;
5117;SDS011;2578;51.622;7.046;2022-08-25T00:18:50;7.73;;;3.80;;
5117;SDS011;2578;51.622;7.046;2022-08-25T00:21:19;7.60;;;3.70;;
5117;SDS011;2578;51.622;7.046;2022-08-25T00:23:48;7.63;;;3.60;;
5117;SDS011;2578;51.622;7.046;2022-08-25T00:26:14;7.63;;;3.50;;
5117;SDS011;2578;51.622;7.046;2022-08-25T00:28:42;7.50;;;3.20;;
5117;SDS011;2578;51.622;7.046;2022-08-25T00:31:12;7.53;;;3.60;;
5117;SDS011;2578;51.622;7.046;2022-08-25T00:33:41;7.33;;;3.20;;
5117;SDS011;2578;51.622;7.046;2022-08-25T00:36:08;7.27;;;2.90;;
5117;SDS011;2578;51.622;7.046;2022-08-25T00:38:37;7.50;;;3.13;;
5117;SDS011;2578;51.622;7.046;2022-08-25T00:41:03;7.45;;;3.30;;
5117;SDS011;2578;51.622;7.046;2022-08-25T00:46:04;7.60;;;3.40;;
5117;SDS011;2578;51.622;7.046;2022-08-25T00:48:31;7.57;;;3.30;;
5117;SDS011;2578;51.622;7.046;2022-08-25T00:50:56;7.67;;;3.50;;
5117;SDS011;2578;51.622;7.046;2022-08-25T00:53:23;7.60;;;3.30;;
5117;SDS011;2578;51.622;7.046;2022-08-25T00:55:48;7.50;;;3.20;;
5117;SDS011;2578;51.622;7.046;2022-08-25T00:58:16;7.50;;;3.20;;
5117;SDS011;2578;51.622;7.046;2022-08-25T01:00:48;7.50;;;3.10;;
5117;SDS011;2578;51.622;7.046;2022-08-25T01:03:17;7.50;;;3.07;;
5117;SDS011;2578;51.622;7.046;2022-08-25T01:05:44;7.40;;;3.00;;
5117;SDS011;2578;51.622;7.046;2022-08-25T01:08:10;7.43;;;2.90;;
5117;SDS011;2578;51.622;7.046;2022-08-25T01:10:37;7.40;;;3.10;;
5117;SDS011;2578;51.622;7.046;2022-08-25T01:13:25;7.50;;;3.00;;
5117;SDS011;2578;51.622;7.046;2022-08-25T01:16:13;7.53;;;3.00;;
5117;SDS011;2578;51.622;7.046;2022-08-25T01:18:49;7.47;;;3.00;;
5117;SDS011;2578;51.622;7.046;2022-08-25T01:21:18;7.47;;;2.93;;
5117;SDS011;2578;51.622;7.046;2022-08-25T01:23:46;7.50;;;2.90;;
5117;SDS011;2578;51.622;7.046;2022-08-25T01:26:24;7.40;;;2.70;;
5117;SDS011;2578;51.622;7.046;2022-08-25T01:28:52;7.28;;;2.70;;
5117;SDS011;2578;51.622;7.046;2022-08-25T01:31:37;7.37;;;2.60;;
5117;SDS011;2578;51.622;7.046;2022-08-25T01:34:04;7.37;;;2.50;;
5117;SDS011;2578;51.622;7.046;2022-08-25T01:36:31;7.33;;;2.60;;
5117;SDS011;2578;51.622;7.046;2022-08-25T01:38:58;7.37;;;2.50;;
5117;SDS011;2578;51.622;7.046;2022-08-25T01:41:49;7.20;;;2.50;;
5117;SDS011;2578;51.622;7.046;2022-08-25T01:44:30;7.43;;;2.73;;
5117;SDS011;2578;51.622;7.046;2022-08-25T01:46:57;7.43;;;2.60;;
5117;SDS011;2578;51.622;7.046;2022-08-25T01:49:22;7.32;;;2.50;;
5117;SDS011;2578;51.622;7.046;2022-08-25T01:52:22;7.40;;;2.50;;
5117;SDS011;2578;51.622;7.046;2022-08-25T01:54:49;7.30;;;2.20;;
5117;SDS011;2578;51.622;7.046;2022-08-25T01:57:15;7.23;;;2.10;;
5117;SDS011;2578;51.622;7.046;2022-08-25T01:59:41;7.20;;;2.00;;
5117;SDS011;2578;51.622;7.046;2022-08-25T02:02:07;7.07;;;1.90;;
5117;SDS011;2578;51.622;7.046;2022-08-25T02:04:32;7.10;;;1.90;;
5117;SDS011;2578;51.622;7.046;2022-08-25T02:06:59;7.03;;;1.80;;
5117;SDS011;2578;51.622;7.046;2022-08-25T02:09:25;7.20;;;1.90;;
5117;SDS011;2578;51.622;7.046;2022-08-25T02:11:51;7.10;;;1.80;;
5117;SDS011;2578;51.622;7.046;2022-08-25T02:14:17;7.17;;;1.83;;
5117;SDS011;2578;51.622;7.046;2022-08-25T02:16:45;7.20;;;1.90;;
5117;SDS011;2578;51.622;7.046;2022-08-25T02:19:12;7.30;;;2.00;;
5117;SDS011;2578;51.622;7.046;2022-08-25T02:21:38;7.20;;;1.90;;
5117;SDS011;2578;51.622;7.046;2022-08-25T02:24:04;7.22;;;1.90;;
5117;SDS011;2578;51.622;7.046;2022-08-25T02:26:31;7.20;;;1.90;;
5117;SDS011;2578;51.622;7.046;2022-08-25T02:28:57;7.27;;;2.00;;
5117;SDS011;2578;51.622;7.046;2022-08-25T02:31:23;7.27;;;2.10;;
5117;SDS011;2578;51.622;7.046;2022-08-25T02:33:50;7.03;;;1.90;;
5117;SDS011;2578;51.622;7.046;2022-08-25T02:36:16;7.27;;;2.00;;
5117;SDS011;2578;51.622;7.046;2022-08-25T02:38:42;7.30;;;2.10;;
5117;SDS011;2578;51.622;7.046;2022-08-25T02:41:09;7.30;;;2.00;;
5117;SDS011;2578;51.622;7.046;2022-08-25T02:43:37;7.23;;;2.00;;
5117;SDS011;2578;51.622;7.046;2022-08-25T02:46:04;7.27;;;1.90;;
5117;SDS011;2578;51.622;7.046;2022-08-25T02:48:29;7.20;;;1.80;;
5117;SDS011;2578;51.622;7.046;2022-08-25T02:50:57;7.18;;;1.85;;
5117;SDS011;2578;51.622;7.046;2022-08-25T02:53:25;7.13;;;1.80;;
5117;SDS011;2578;51.622;7.046;2022-08-25T02:55:52;7.27;;;1.80;;
5117;SDS011;2578;51.622;7.046;2022-08-25T02:58:18;7.23;;;1.80;;
5117;SDS011;2578;51.622;7.046;2022-08-25T03:00:45;7.27;;;1.80;;
5117;SDS011;2578;51.622;7.046;2022-08-25T03:03:12;7.25;;;1.90;;
5117;SDS011;2578;51.622;7.046;2022-08-25T03:05:38;7.20;;;2.00;;
5117;SDS011;2578;51.622;7.046;2022-08-25T03:08:05;7.23;;;1.90;;
5117;SDS011;2578;51.622;7.046;2022-08-25T03:10:31;7.20;;;1.90;;
5117;SDS011;2578;51.622;7.046;2022-08-25T03:12:57;7.33;;;2.10;;
5117;SDS011;2578;51.622;7.046;2022-08-25T03:15:23;7.23;;;1.90;;
5117;SDS011;2578;51.622;7.046;2022-08-25T03:17:51;7.18;;;1.90;;
5117;SDS011;2578;51.622;7.046;2022-08-25T03:20:18;7.20;;;1.90;;
5117;SDS011;2578;51.622;7.046;2022-08-25T03:22:44;7.27;;;1.90;;
5117;SDS011;2578;51.622;7.046;2022-08-25T03:25:10;7.18;;;2.00;;
5117;SDS011;2578;51.622;7.046;2022-08-25T03:27:54;7.23;;;1.90;;
5117;SDS011;2578;51.622;7.046;2022-08-25T03:30:20;7.30;;;1.97;;
5117;SDS011;2578;51.622;7.046;2022-08-25T03:32:46;7.20;;;1.80;;
5117;SDS011;2578;51.622;7.046;2022-08-25T03:35:12;7.20;;;1.90;;
5117;SDS011;2578;51.622;7.046;2022-08-25T03:37:38;7.20;;;1.80;;
5117;SDS011;2578;51.622;7.046;2022-08-25T03:40:04;7.17;;;1.80;;
5117;SDS011;2578;51.622;7.046;2022-08-25T03:42:33;7.20;;;1.90;;
5117;SDS011;2578;51.622;7.046;2022-08-25T03:45:00;7.27;;;2.00;;
5117;SDS011;2578;51.622;7.046;2022-08-25T03:47:28;7.17;;;2.00;;
5117;SDS011;2578;51.622;7.046;2022-08-25T03:49:54;7.27;;;2.10;;
5117;SDS011;2578;51.622;7.046;2022-08-25T03:52:20;7.27;;;2.10;;
5117;SDS011;2578;51.622;7.046;2022-08-25T03:54:46;7.20;;;2.00;;
5117;SDS011;2578;51.622;7.046;2022-08-25T03:57:11;7.17;;;1.90;;
5117;SDS011;2578;51.622;7.046;2022-08-25T03:59:37;7.17;;;1.90;;
5117;SDS011;2578;51.622;7.046;2022-08-25T04:02:03;7.20;;;1.90;;
5117;SDS011;2578;51.622;7.046;2022-08-25T04:04:30;7.23;;;1.90;;
5117;SDS011;2578;51.622;7.046;2022-08-25T04:06:56;7.17;;;2.00;;
5117;SDS011;2578;51.622;7.046;2022-08-25T04:09:22;7.20;;;2.00;;
5117;SDS011;2578;51.622;7.046;2022-08-25T04:11:48;7.17;;;2.00;;
5117;SDS011;2578;51.622;7.046;2022-08-25T04:14:14;7.20;;;1.90;;
5117;SDS011;2578;51.622;7.046;2022-08-25T04:16:40;7.23;;;1.90;;
5117;SDS011;2578;51.622;7.046;2022-08-25T04:19:06;7.20;;;1.90;;
5117;SDS011;2578;51.622;7.046;2022-08-25T04:21:34;7.20;;;1.80;;
5117;SDS011;2578;51.622;7.046;2022-08-25T04:24:04;7.20;;;1.90;;
5117;SDS011;2578;51.622;7.046;2022-08-25T04:26:34;7.10;;;1.70;;
5117;SDS011;2578;51.622;7.046;2022-08-25T04:29:03;7.20;;;1.70;;
5117;SDS011;2578;51.622;7.046;2022-08-25T04:31:30;7.13;;;1.70;;
5117;SDS011;2578;51.622;7.046;2022-08-25T04:33:57;7.10;;;1.70;;
5117;SDS011;2578;51.622;7.046;2022-08-25T04:36:25;7.10;;;1.60;;
5117;SDS011;2578;51.622;7.046;2022-08-25T04:38:50;7.17;;;1.70;;
5117;SDS011;2578;51.622;7.046;2022-08-25T04:41:18;7.13;;;1.63;;
5117;SDS011;2578;51.622;7.046;2022-08-25T04:43:44;7.17;;;1.60;;
5117;SDS011;2578;51.622;7.046;2022-08-25T04:46:11;7.10;;;1.60;;
5117;SDS011;2578;51.622;7.046;2022-08-25T04:48:39;7.20;;;1.80;;
5117;SDS011;2578;51.622;7.046;2022-08-25T04:51:06;7.17;;;1.73;;
5117;SDS011;2578;51.622;7.046;2022-08-25T04:53:33;7.30;;;1.83;;
5117;SDS011;2578;51.622;7.046;2022-08-25T04:55:59;7.17;;;1.73;;
5117;SDS011;2578;51.622;7.046;2022-08-25T04:58:25;7.23;;;1.80;;
5117;SDS011;2578;51.622;7.046;2022-08-25T05:00:51;7.17;;;1.60;;
5117;SDS011;2578;51.622;7.046;2022-08-25T05:03:17;7.20;;;1.70;;
5117;SDS011;2578;51.622;7.046;2022-08-25T05:05:43;7.22;;;1.80;;
5117;SDS011;2578;51.622;7.046;2022-08-25T05:08:08;7.20;;;1.70;;
5117;SDS011;2578;51.622;7.046;2022-08-25T05:10:38;7.20;;;1.70;;
5117;SDS011;2578;51.622;7.046;2022-08-25T05:13:05;7.10;;;1.60;;
5117;SDS011;2578;51.622;7.046;2022-08-25T05:15:30;7.17;;;1.70;;
5117;SDS011;2578;51.622;7.046;2022-08-25T05:18:15;7.10;;;1.50;;
5117;SDS011;2578;51.622;7.046;2022-08-25T05:20:41;7.20;;;1.70;;
5117;SDS011;2578;51.622;7.046;2022-08-25T05:23:07;7.13;;;1.50;;
5117;SDS011;2578;51.622;7.046;2022-08-25T05:25:33;7.03;;;1.60;;
5117;SDS011;2578;51.622;7.046;2022-08-25T05:27:58;7.15;;;1.50;;
5117;SDS011;2578;51.622;7.046;2022-08-25T05:30:24;7.10;;;1.40;;
5117;SDS011;2578;51.622;7.046;2022-08-25T05:32:50;7.03;;;1.30;;
5117;SDS011;2578;51.622;7.046;2022-08-25T05:35:16;7.17;;;1.33;;
5117;SDS011;2578;51.622;7.046;2022-08-25T05:37:43;7.38;;;1.80;;
5117;SDS011;2578;51.622;7.046;2022-08-25T05:40:09;7.40;;;1.90;;
5117;SDS011;2578;51.622;7.046;2022-08-25T05:42:35;7.40;;;2.00;;
5117;SDS011;2578;51.622;7.046;2022-08-25T05:45:01;7.50;;;2.00;;
5117;SDS011;2578;51.622;7.046;2022-08-25T05:47:27;7.65;;;2.50;;
5117;SDS011;2578;51.622;7.046;2022-08-25T05:49:53;7.87;;;2.93;;
5117;SDS011;2578;51.622;7.046;2022-08-25T05:52:19;8.03;;;3.60;;
5117;SDS011;2578;51.622;7.046;2022-08-25T05:54:45;8.40;;;4.30;;
5117;SDS011;2578;51.622;7.046;2022-08-25T05:57:10;8.80;;;5.20;;
5117;SDS011;2578;51.622;7.046;2022-08-25T05:59:36;9.13;;;6.17;;
5117;SDS011;2578;51.622;7.046;2022-08-25T06:02:02;9.73;;;7.60;;
5117;SDS011;2578;51.622;7.046;2022-08-25T06:04:46;10.07;;;8.60;;
5117;SDS011;2578;51.622;7.046;2022-08-25T06:07:12;10.30;;;9.20;;
5117;SDS011;2578;51.622;7.046;2022-08-25T06:09:39;11.73;;;10.53;;
5117;SDS011;2578;51.622;7.046;2022-08-25T06:12:05;12.30;;;11.10;;
5117;SDS011;2578;51.622;7.046;2022-08-25T06:14:32;12.70;;;11.50;;
5117;SDS011;2578;51.622;7.046;2022-08-25T06:16:57;13.50;;;12.20;;
5117;SDS011;2578;51.622;7.046;2022-08-25T06:19:24;14.40;;;13.10;;
5117;SDS011;2578;51.622;7.046;2022-08-25T06:21:54;15.30;;;13.90;;
5117;SDS011;2578;51.622;7.046;2022-08-25T06:24:21;16.00;;;14.50;;
5117;SDS011;2578;51.622;7.046;2022-08-25T06:26:51;16.10;;;14.60;;
5117;SDS011;2578;51.622;7.046;2022-08-25T06:29:18;17.10;;;15.50;;
5117;SDS011;2578;51.622;7.046;2022-08-25T06:31:44;17.40;;;15.80;;
5117;SDS011;2578;51.622;7.046;2022-08-25T06:34:10;18.30;;;16.60;;
5117;SDS011;2578;51.622;7.046;2022-08-25T06:36:36;18.70;;;17.00;;
5117;SDS011;2578;51.622;7.046;2022-08-25T06:39:02;19.17;;;17.47;;
5117;SDS011;2578;51.622;7.046;2022-08-25T06:41:28;20.00;;;18.20;;
5117;SDS011;2578;51.622;7.046;2022-08-25T06:43:54;19.20;;;17.50;;
5117;SDS011;2578;51.622;7.046;2022-08-25T06:46:21;20.00;;;18.20;;
5117;SDS011;2578;51.622;7.046;2022-08-25T06:48:48;19.83;;;18.03;;
5117;SDS011;2578;51.622;7.046;2022-08-25T06:51:15;20.50;;;18.70;;
5117;SDS011;2578;51.622;7.046;2022-08-25T06:53:42;20.27;;;18.47;;
5117;SDS011;2578;51.622;7.046;2022-08-25T06:56:10;20.00;;;18.20;;
5117;SDS011;2578;51.622;7.046;2022-08-25T06:58:37;20.00;;;18.20;;
5117;SDS011;2578;51.622;7.046;2022-08-25T07:01:07;20.10;;;18.30;;
5117;SDS011;2578;51.622;7.046;2022-08-25T07:03:37;20.50;;;18.70;;
5117;SDS011;2578;51.622;7.046;2022-08-25T07:06:04;20.30;;;18.50;;
5117;SDS011;2578;51.622;7.046;2022-08-25T07:08:30;20.23;;;18.43;;
5117;SDS011;2578;51.622;7.046;2022-08-25T07:10:57;20.87;;;19.07;;
5117;SDS011;2578;51.622;7.046;2022-08-25T07:13:27;23.70;;;20.53;;
5117;SDS011;2578;51.622;7.046;2022-08-25T07:15:56;20.70;;;18.90;;
5117;SDS011;2578;51.622;7.046;2022-08-25T07:18:21;21.50;;;19.50;;
5117;SDS011;2578;51.622;7.046;2022-08-25T07:20:47;21.70;;;19.80;;
5117;SDS011;2578;51.622;7.046;2022-08-25T07:23:13;21.43;;;19.53;;
5117;SDS011;2578;51.622;7.046;2022-08-25T07:25:39;21.37;;;19.43;;
5117;SDS011;2578;51.622;7.046;2022-08-25T07:28:04;22.30;;;20.30;;
5117;SDS011;2578;51.622;7.046;2022-08-25T07:30:30;23.10;;;21.10;;
5117;SDS011;2578;51.622;7.046;2022-08-25T07:32:56;22.47;;;20.40;;
5117;SDS011;2578;51.622;7.046;2022-08-25T07:35:22;22.67;;;20.60;;
5117;SDS011;2578;51.622;7.046;2022-08-25T07:37:50;22.37;;;20.37;;
5117;SDS011;2578;51.622;7.046;2022-08-25T07:40:22;22.53;;;20.53;;
5117;SDS011;2578;51.622;7.046;2022-08-25T07:42:51;22.60;;;20.60;;
5117;SDS011;2578;51.622;7.046;2022-08-25T07:45:19;23.13;;;21.10;;
5117;SDS011;2578;51.622;7.046;2022-08-25T07:47:49;22.83;;;20.83;;
5117;SDS011;2578;51.622;7.046;2022-08-25T07:50:17;22.90;;;20.80;;
5117;SDS011;2578;51.622;7.046;2022-08-25T07:52:44;22.50;;;20.50;;
5117;SDS011;2578;51.622;7.046;2022-08-25T07:55:10;22.77;;;20.57;;
5117;SDS011;2578;51.622;7.046;2022-08-25T07:57:38;23.50;;;21.40;;
5117;SDS011;2578;51.622;7.046;2022-08-25T08:00:05;22.73;;;20.73;;
5117;SDS011;2578;51.622;7.046;2022-08-25T08:02:32;22.27;;;20.17;;
5117;SDS011;2578;51.622;7.046;2022-08-25T08:04:57;22.40;;;20.30;;
5117;SDS011;2578;51.622;7.046;2022-08-25T08:07:24;23.00;;;20.87;;
5117;SDS011;2578;51.622;7.046;2022-08-25T08:09:51;22.80;;;20.70;;
5117;SDS011;2578;51.622;7.046;2022-08-25T08:12:17;23.13;;;21.03;;
5117;SDS011;2578;51.622;7.046;2022-08-25T08:14:43;23.85;;;21.75;;
5117;SDS011;2578;51.622;7.046;2022-08-25T08:17:09;24.07;;;21.87;;
5117;SDS011;2578;51.622;7.046;2022-08-25T08:19:36;23.60;;;21.50;;
5117;SDS011;2578;51.622;7.046;2022-08-25T08:22:02;23.70;;;21.50;;
5117;SDS011;2578;51.622;7.046;2022-08-25T08:24:29;24.45;;;22.25;;
5117;SDS011;2578;51.622;7.046;2022-08-25T08:26:55;24.40;;;21.90;;
5117;SDS011;2578;51.622;7.046;2022-08-25T08:29:22;24.30;;;22.10;;
5117;SDS011;2578;51.622;7.046;2022-08-25T08:31:48;24.53;;;22.30;;
5117;SDS011;2578;51.622;7.046;2022-08-25T08:34:14;25.75;;;23.35;;
5117;SDS011;2578;51.622;7.046;2022-08-25T08:36:40;24.40;;;22.10;;
5117;SDS011;2578;51.622;7.046;2022-08-25T08:39:05;24.23;;;22.03;;
5117;SDS011;2578;51.622;7.046;2022-08-25T08:49:56;25.67;;;23.37;;
5117;SDS011;2578;51.622;7.046;2022-08-25T08:52:48;24.80;;;22.53;;
5117;SDS011;2578;51.622;7.046;2022-08-25T08:58:02;25.27;;;22.97;;
5117;SDS011;2578;51.622;7.046;2022-08-25T09:00:36;25.30;;;23.10;;
5117;SDS011;2578;51.622;7.046;2022-08-25T09:03:07;25.63;;;23.33;;
5117;SDS011;2578;51.622;7.046;2022-08-25T09:05:45;25.53;;;23.23;;
5117;SDS011;2578;51.622;7.046;2022-08-25T09:08:14;25.90;;;23.60;;
5117;SDS011;2578;51.622;7.046;2022-08-25T09:19:40;28.70;;;26.10;;
5117;SDS011;2578;51.622;7.046;2022-08-25T09:30:13;30.08;;;27.58;;
5117;SDS011;2578;51.622;7.046;2022-08-25T09:32:47;26.60;;;24.30;;
5117;SDS011;2578;51.622;7.046;2022-08-25T09:35:25;26.33;;;24.02;;
5117;SDS011;2578;51.622;7.046;2022-08-25T09:38:11;101.88;;;27.08;;
5117;SDS011;2578;51.622;7.046;2022-08-25T09:40:39;27.90;;;25.40;;
5117;SDS011;2578;51.622;7.046;2022-08-25T09:43:51;27.17;;;24.67;;
5117;SDS011;2578;51.622;7.046;2022-08-25T09:45:57;27.85;;;25.38;;
5117;SDS011;2578;51.622;7.046;2022-08-25T09:48:27;27.10;;;24.60;;
5117;SDS011;2578;51.622;7.046;2022-08-25T09:51:33;27.15;;;24.75;;
5117;SDS011;2578;51.622;7.046;2022-08-25T10:01:55;27.20;;;24.80;;
5117;SDS011;2578;51.622;7.046;2022-08-25T10:04:27;27.60;;;25.20;;
5117;SDS011;2578;51.622;7.046;2022-08-25T10:06:58;27.10;;;24.70;;
5117;SDS011;2578;51.622;7.046;2022-08-25T10:11:54;28.20;;;25.70;;
5117;SDS011;2578;51.622;7.046;2022-08-25T10:14:33;27.05;;;24.65;;
5117;SDS011;2578;51.622;7.046;2022-08-25T10:17:15;27.70;;;25.10;;
5117;SDS011;2578;51.622;7.046;2022-08-25T10:20:12;26.30;;;23.90;;
5117;SDS011;2578;51.622;7.046;2022-08-25T10:22:38;26.92;;;24.52;;
5117;SDS011;2578;51.622;7.046;2022-08-25T10:25:07;27.20;;;24.70;;
5117;SDS011;2578;51.622;7.046;2022-08-25T10:35:23;27.58;;;25.08;;
5117;SDS011;2578;51.622;7.046;2022-08-25T10:40:46;28.63;;;26.02;;
5117;SDS011;2578;51.622;7.046;2022-08-25T10:46:09;29.73;;;27.02;;
5117;SDS011;2578;51.622;7.046;2022-08-25T10:51:30;27.60;;;25.00;;
5117;SDS011;2578;51.622;7.046;2022-08-25T10:54:04;27.30;;;24.50;;
5117;SDS011;2578;51.622;7.046;2022-08-25T10:59:29;28.55;;;25.95;;
5117;SDS011;2578;51.622;7.046;2022-08-25T11:05:14;29.10;;;26.58;;
5117;SDS011;2578;51.622;7.046;2022-08-25T11:07:49;26.60;;;24.20;;
5117;SDS011;2578;51.622;7.046;2022-08-25T11:10:37;27.60;;;24.90;;
5117;SDS011;2578;51.622;7.046;2022-08-25T11:13:57;27.30;;;24.80;;
5117;SDS011;2578;51.622;7.046;2022-08-25T11:16:17;26.80;;;24.30;;
5117;SDS011;2578;51.622;7.046;2022-08-25T11:19:32;27.05;;;24.50;;
5117;SDS011;2578;51.622;7.046;2022-08-25T11:24:54;26.80;;;24.30;;
5117;SDS011;2578;51.622;7.046;2022-08-25T11:28:02;26.95;;;24.45;;
5117;SDS011;2578;51.622;7.046;2022-08-25T11:30:50;27.33;;;24.73;;
5117;SDS011;2578;51.622;7.046;2022-08-25T11:33:17;27.30;;;24.80;;
5117;SDS011;2578;51.622;7.046;2022-08-25T11:35:58;27.92;;;25.23;;
5117;SDS011;2578;51.622;7.046;2022-08-25T11:51:49;27.63;;;25.10;;
5117;SDS011;2578;51.622;7.046;2022-08-25T11:54:20;26.65;;;24.15;;
5117;SDS011;2578;51.622;7.046;2022-08-25T11:57:36;26.80;;;24.30;;
5117;SDS011;2578;51.622;7.046;2022-08-25T12:04:52;27.33;;;24.73;;
5117;SDS011;2578;51.622;7.046;2022-08-25T12:07:20;29.55;;;26.67;;
5117;SDS011;2578;51.622;7.046;2022-08-25T12:18:16;26.20;;;23.70;;
5117;SDS011;2578;51.622;7.046;2022-08-25T12:34:26;26.85;;;24.25;;
5117;SDS011;2578;51.622;7.046;2022-08-25T12:37:17;26.58;;;24.02;;
5117;SDS011;2578;51.622;7.046;2022-08-25T12:42:21;27.45;;;24.80;;
5117;SDS011;2578;51.622;7.046;2022-08-25T12:47:45;27.33;;;24.63;;
5117;SDS011;2578;51.622;7.046;2022-08-25T12:53:05;27.20;;;24.60;;
5117;SDS011;2578;51.622;7.046;2022-08-25T12:55:36;26.70;;;24.10;;
5117;SDS011;2578;51.622;7.046;2022-08-25T12:58:05;27.10;;;24.50;;
5117;SDS011;2578;51.622;7.046;2022-08-25T13:00:32;26.67;;;24.15;;
5117;SDS011;2578;51.622;7.046;2022-08-25T13:14:05;27.65;;;25.00;;
5117;SDS011;2578;51.622;7.046;2022-08-25T13:16:32;27.10;;;24.50;;
5117;SDS011;2578;51.622;7.046;2022-08-25T13:18:58;27.60;;;25.00;;
5117;SDS011;2578;51.622;7.046;2022-08-25T13:27:07;27.40;;;24.80;;
5117;SDS011;2578;51.622;7.046;2022-08-25T13:29:49;27.42;;;24.85;;
5117;SDS011;2578;51.622;7.046;2022-08-25T13:32:30;27.02;;;24.42;;
5117;SDS011;2578;51.622;7.046;2022-08-25T13:37:41;27.02;;;24.52;;
5117;SDS011;2578;51.622;7.046;2022-08-25T13:42:42;26.60;;;24.10;;
5117;SDS011;2578;51.622;7.046;2022-08-25T13:45:11;27.02;;;24.52;;
5117;SDS011;2578;51.622;7.046;2022-08-25T13:47:40;26.90;;;24.40;;
5117;SDS011;2578;51.622;7.046;2022-08-25T13:52:55;27.83;;;25.33;;
5117;SDS011;2578;51.622;7.046;2022-08-25T13:55:26;27.00;;;24.50;;
5117;SDS011;2578;51.622;7.046;2022-08-25T13:58:12;28.85;;;26.25;;
5117;SDS011;2578;51.622;7.046;2022-08-25T14:00:42;29.33;;;26.63;;
5117;SDS011;2578;51.622;7.046;2022-08-25T14:03:27;27.75;;;25.25;;
5117;SDS011;2578;51.622;7.046;2022-08-25T14:06:07;27.63;;;25.02;;
5117;SDS011;2578;51.622;7.046;2022-08-25T14:08:44;28.65;;;25.73;;
5117;SDS011;2578;51.622;7.046;2022-08-25T14:14:05;27.75;;;25.15;;
5117;SDS011;2578;51.622;7.046;2022-08-25T14:16:37;26.90;;;24.40;;
5117;SDS011;2578;51.622;7.046;2022-08-25T14:19:04;27.83;;;25.30;;
5117;SDS011;2578;51.622;7.046;2022-08-25T14:21:37;27.92;;;25.38;;
5117;SDS011;2578;51.622;7.046;2022-08-25T14:24:02;28.17;;;25.58;;
5117;SDS011;2578;51.622;7.046;2022-08-25T14:26:30;28.20;;;25.60;;
5117;SDS011;2578;51.622;7.046;2022-08-25T14:28:56;27.58;;;25.08;;
5117;SDS011;2578;51.622;7.046;2022-08-25T14:31:33;27.73;;;25.23;;
5117;SDS011;2578;51.622;7.046;2022-08-25T14:34:04;27.35;;;24.92;;
5117;SDS011;2578;51.622;7.046;2022-08-25T14:36:33;27.33;;;24.85;;
5117;SDS011;2578;51.622;7.046;2022-08-25T14:39:00;26.90;;;24.50;;
5117;SDS011;2578;51.622;7.046;2022-08-25T14:41:30;26.25;;;23.75;;
5117;SDS011;2578;51.622;7.046;2022-08-25T14:43:58;26.25;;;23.75;;
5117;SDS011;2578;51.622;7.046;2022-08-25T14:46:26;27.60;;;25.00;;
5117;SDS011;2578;51.622;7.046;2022-08-25T14:48:54;27.35;;;24.85;;
5117;SDS011;2578;51.622;7.046;2022-08-25T14:51:29;27.42;;;24.92;;
5117;SDS011;2578;51.622;7.046;2022-08-25T14:54:00;28.45;;;25.85;;
5117;SDS011;2578;51.622;7.046;2022-08-25T14:56:28;26.83;;;24.42;;
5117;SDS011;2578;51.622;7.046;2022-08-25T14:58:55;26.85;;;24.35;;
5117;SDS011;2578;51.622;7.046;2022-08-25T15:01:21;26.40;;;23.90;;
5117;SDS011;2578;51.622;7.046;2022-08-25T15:03:49;26.23;;;23.77;;
5117;SDS011;2578;51.622;7.046;2022-08-25T15:06:18;25.75;;;23.35;;
5117;SDS011;2578;51.622;7.046;2022-08-25T15:08:43;25.35;;;22.95;;
5117;SDS011;2578;51.622;7.046;2022-08-25T15:11:28;26.15;;;23.70;;
5117;SDS011;2578;51.622;7.046;2022-08-25T15:13:55;26.60;;;24.10;;
5117;SDS011;2578;51.622;7.046;2022-08-25T15:16:26;28.83;;;26.20;;
5117;SDS011;2578;51.622;7.046;2022-08-25T15:18:58;27.60;;;25.00;;
5117;SDS011;2578;51.622;7.046;2022-08-25T15:21:24;27.50;;;24.90;;
5117;SDS011;2578;51.622;7.046;2022-08-25T15:23:50;27.90;;;25.30;;
5117;SDS011;2578;51.622;7.046;2022-08-25T15:26:15;26.98;;;24.48;;
5117;SDS011;2578;51.622;7.046;2022-08-25T15:28:46;24.95;;;22.55;;
5117;SDS011;2578;51.622;7.046;2022-08-25T15:31:16;26.95;;;24.45;;
5117;SDS011;2578;51.622;7.046;2022-08-25T15:33:44;27.08;;;24.58;;
5117;SDS011;2578;51.622;7.046;2022-08-25T15:36:11;28.50;;;25.95;;
5117;SDS011;2578;51.622;7.046;2022-08-25T15:38:40;28.50;;;26.00;;
5117;SDS011;2578;51.622;7.046;2022-08-25T15:41:08;26.30;;;23.90;;
5117;SDS011;2578;51.622;7.046;2022-08-25T15:43:34;27.23;;;24.73;;
5117;SDS011;2578;51.622;7.046;2022-08-25T15:46:01;26.80;;;24.30;;
5117;SDS011;2578;51.622;7.046;2022-08-25T15:48:28;28.00;;;25.50;;
5117;SDS011;2578;51.622;7.046;2022-08-25T15:50:54;26.90;;;24.40;;
5117;SDS011;2578;51.622;7.046;2022-08-25T15:53:21;28.30;;;25.80;;
5117;SDS011;2578;51.622;7.046;2022-08-25T15:55:49;28.33;;;25.73;;
5117;SDS011;2578;51.622;7.046;2022-08-25T15:58:16;28.60;;;26.00;;
5117;SDS011;2578;51.622;7.046;2022-08-25T16:00:42;28.77;;;26.05;;
5117;SDS011;2578;51.622;7.046;2022-08-25T16:03:08;26.42;;;23.92;;
5117;SDS011;2578;51.622;7.046;2022-08-25T16:05:41;27.10;;;24.50;;
5117;SDS011;2578;51.622;7.046;2022-08-25T16:08:08;27.40;;;24.80;;
5117;SDS011;2578;51.622;7.046;2022-08-25T16:10:34;27.00;;;24.50;;
5117;SDS011;2578;51.622;7.046;2022-08-25T16:13:02;27.08;;;24.48;;
5117;SDS011;2578;51.622;7.046;2022-08-25T16:15:28;26.88;;;24.27;;
5117;SDS011;2578;51.622;7.046;2022-08-25T16:17:55;27.13;;;24.52;;
5117;SDS011;2578;51.622;7.046;2022-08-25T16:20:22;25.85;;;23.45;;
5117;SDS011;2578;51.622;7.046;2022-08-25T16:22:48;26.00;;;23.60;;
5117;SDS011;2578;51.622;7.046;2022-08-25T16:25:14;25.30;;;22.90;;
5117;SDS011;2578;51.622;7.046;2022-08-25T16:27:40;25.52;;;23.13;;
5117;SDS011;2578;51.622;7.046;2022-08-25T16:30:09;25.70;;;23.30;;
5117;SDS011;2578;51.622;7.046;2022-08-25T16:32:36;25.40;;;23.00;;
5117;SDS011;2578;51.622;7.046;2022-08-25T16:35:03;25.90;;;23.50;;
5117;SDS011;2578;51.622;7.046;2022-08-25T16:37:30;25.80;;;23.40;;
5117;SDS011;2578;51.622;7.046;2022-08-25T16:39:57;25.70;;;23.30;;
5117;SDS011;2578;51.622;7.046;2022-08-25T16:42:23;25.45;;;23.10;;
5117;SDS011;2578;51.622;7.046;2022-08-25T16:44:48;25.30;;;22.90;;
5117;SDS011;2578;51.622;7.046;2022-08-25T16:47:14;25.70;;;23.30;;
5117;SDS011;2578;51.622;7.046;2022-08-25T16:49:40;25.60;;;23.20;;
5117;SDS011;2578;51.622;7.046;2022-08-25T16:52:06;25.20;;;22.80;;
5117;SDS011;2578;51.622;7.046;2022-08-25T16:54:52;25.10;;;22.70;;
5117;SDS011;2578;51.622;7.046;2022-08-25T16:57:36;25.83;;;23.42;;
5117;SDS011;2578;51.622;7.046;2022-08-25T17:00:03;25.30;;;22.90;;
5117;SDS011;2578;51.622;7.046;2022-08-25T17:02:30;25.25;;;22.85;;
5117;SDS011;2578;51.622;7.046;2022-08-25T17:04:56;25.40;;;23.00;;
5117;SDS011;2578;51.622;7.046;2022-08-25T17:07:22;25.40;;;23.10;;
5117;SDS011;2578;51.622;7.046;2022-08-25T17:09:47;25.23;;;22.90;;
5117;SDS011;2578;51.622;7.046;2022-08-25T17:12:13;25.50;;;23.15;;
5117;SDS011;2578;51.622;7.046;2022-08-25T17:14:39;26.15;;;23.50;;
5117;SDS011;2578;51.622;7.046;2022-08-25T17:17:05;25.65;;;23.35;;
5117;SDS011;2578;51.622;7.046;2022-08-25T17:19:30;29.40;;;26.80;;
5117;SDS011;2578;51.622;7.046;2022-08-25T17:21:57;25.33;;;23.00;;
5117;SDS011;2578;51.622;7.046;2022-08-25T17:24:22;26.27;;;23.88;;
5117;SDS011;2578;51.622;7.046;2022-08-25T17:26:48;24.95;;;22.65;;
5117;SDS011;2578;51.622;7.046;2022-08-25T17:29:15;25.42;;;23.08;;
5117;SDS011;2578;51.622;7.046;2022-08-25T17:31:41;25.20;;;22.90;;
5117;SDS011;2578;51.622;7.046;2022-08-25T17:34:09;25.70;;;23.30;;